This is the latest recevied weather packets stored in our database for station/object N1PRS-9. If no packets are shown the sender has not sent any weather packets the latest 10 day(s).
| Time | Temp. | Humidity | Pressure | Rain* | Wind** | Luminosity | Snow |
|---|---|---|---|---|---|---|---|
| 1777750257 | 10.56° C | 93% | 1011.3 hPa | 0.51 mm | - | 206 W/m² | - |
| 1777749933 | 10° C | 94% | 1011.4 hPa | 0.51 mm | - | 800 W/m² | - |
| 1777748132 | 9.44° C | 93% | 1011.9 hPa | 1.52 mm | - | 47 W/m² | - |
| 1777746934 | 8.89° C | 92% | 1011.9 hPa | 1.02 mm | - | 60 W/m² | - |
| 1777745133 | 9.44° C | 88% | 1011.8 hPa | 0.76 mm | - | 37 W/m² | - |
| 1777744232 | 10° C | 83% | 1011.6 hPa | 0 mm | - | 18 W/m² | - |
| 1777740631 | 12.78° C | 75% | 1011.3 hPa | 0 mm | - | 211 W/m² | - |
| 1777739131 | 12.78° C | 74% | 1011.5 hPa | 0 mm | - | 139 W/m² | - |
| 1777738834 | 12.78° C | 74% | 1011.5 hPa | 0 mm | - | 130 W/m² | - |
| 1777737932 | 12.78° C | 73% | 1011.5 hPa | 0 mm | - | 127 W/m² | - |
| 1777737033 | 12.78° C | 73% | 1011.5 hPa | 0 mm | - | 144 W/m² | - |
| 1777735858 | 12.78° C | 75% | 1011.8 hPa | 0 mm | - | 216 W/m² | - |
| 1777734632 | 12.22° C | 76% | 1012 hPa | 0 mm | - | 262 W/m² | - |
| 1777734045 | 12.22° C | 78% | 1012.1 hPa | 0 mm | - | 221 W/m² | - |
| 1777733735 | 12.22° C | 77% | 1012.1 hPa | 0 mm | - | 209 W/m² | - |
| 1777733163 | 12.22° C | 79% | 1011.9 hPa | 0 mm | - | 167 W/m² | - |
| 1777731635 | 11.67° C | 75% | 1012.1 hPa | 0 mm | - | 199 W/m² | - |
| 1777730133 | 11.11° C | 82% | 1012 hPa | 0 mm | - | 211 W/m² | - |
| 1777728032 | 10° C | 87% | 1012 hPa | 0.25 mm | - | 132 W/m² | - |
| 1777726232 | 9.44° C | 94% | 1011.9 hPa | 0.51 mm | - | 86 W/m² | - |
| 1777723248 | 8.33° C | 95% | 1012.7 hPa | 0.51 mm | - | 56 W/m² | - |
| 1777722632 | 8.33° C | 94% | 1012.8 hPa | 0.25 mm | - | 25 W/m² | - |
| 1777721446 | 8.33° C | 94% | 1012.8 hPa | 0.25 mm | - | 26 W/m² | - |
| 1777720831 | 8.33° C | 94% | 1012.9 hPa | 0 mm | - | 14 W/m² | - |
| 1777720545 | 8.33° C | 94% | 1013.1 hPa | 0 mm | - | 11 W/m² | - |
* Rain latest hour (hover to see other rain measurements)
** Current wind speed in m/s (hover to see current wind gust speed)